Kangerlussuup Sermersua

KL  EN  DA
ASIAQ
Weather Now GREENLAND SURVEY
Updated [WGT/WGST] Temperature [°C] Wind [m/s] Air pressure [hPa] Relative humidity [%] Precipitation [mm]
Present Wind chill Speed Max
12.05 18:00-1,2-6,04,4 ⇖n/a94597n/a
12.05 17:00-1,4-5,83,8 ⇖n/a945100n/a
12.05 16:00-1,6-5,93,6 ⇖n/a944100n/a
12.05 15:00-2,0-6,43,6 ⇖n/a94499n/a
12.05 14:00-2,4-6,53,1 ⇖n/a94499n/a
12.05 13:00-2,7-6,32,6 ⇖n/a94599n/a
12.05 12:00-2,8-7,13,2 ⇖n/a94498n/a
12.05 11:00-3,1-7,73,4 ⇑n/a94496n/a
12.05 10:00-3,4-8,43,8 ⇖n/a94497n/a
12.05 09:00-3,5-8,74,2 ⇖n/a944100n/a
12.05 08:00-3,5-8,43,7 ⇖n/a943100n/a
12.05 07:00-3,5-6,92,3 ⇖n/a943100n/a
12.05 06:00-3,5-6,41,9 ⇖n/a943100n/a
12.05 05:00-3,1-5,81,8 ⇑n/a943100n/a
12.05 04:00-2,8-5,82,1 ⇑n/a942100n/a
12.05 03:00-2,8-5,21,7 ⇗n/a942100n/a
12.05 02:00-2,7-4,81,5 ⇗n/a942100n/a
12.05 01:00-2,6-4,61,5 ⇗n/a942100n/a
12.05 00:00-1,80,01,1 ⇒n/a942100n/a
11.05 23:00-1,70,00,1 ⇒n/a942100n/a
11.05 22:00-1,60,00,0 ⇒n/a942100n/a
11.05 21:00-1,30,00,3 ⇗n/a941100n/a
11.05 20:00-0,60,00,0 ⇓n/a941100n/a
11.05 19:00-0,80,00,5 ⇖n/a941100n/a
11.05 18:00-0,9-3,11,7 ⇖n/a941100n/a
Position: (67.0955,-49.9513)

[Back]